Time;durP1;ratioP1;P1;durP2;ratioP2;P2;SDS_P1;SDS_P2;PMS_P1;PMS_P2;Temp;Humidity;BMP_temperature;BMP_pressure;BME280_temperature;BME280_humidity;BME280_pressure;Samples;Min_cycle;Max_cycle;Signal;HPM_P1;HPM_P2
2022/05/30 00:01:10;;;;;;;1.97;1.77;;;;;;;;;;5051704;28;24419;-45
2022/05/30 00:03:35;;;;;;;1.70;1.60;;;;;;;;;;5051673;28;24726;-45
2022/05/30 00:06:00;;;;;;;3.13;2.10;;;;;;;;;;5058197;28;24548;-46
2022/05/30 00:08:25;;;;;;;1.80;1.70;;;;;;;;;;5049263;28;24506;-45
2022/05/30 00:10:51;;;;;;;2.10;1.90;;;;;;;;;;5053094;28;24465;-45
2022/05/30 00:13:16;;;;;;;1.73;1.63;;;;;;;;;;5053177;28;24427;-46
2022/05/30 00:15:41;;;;;;;2.10;1.90;;;;;;;;;;5053546;28;24770;-45
2022/05/30 00:18:09;;;;;;;2.08;1.88;;;;;;;;;;5058961;28;25768;-46
2022/05/30 00:20:34;;;;;;;1.65;1.48;;;;;;;;;;5053617;28;24419;-45
2022/05/30 00:22:59;;;;;;;1.77;1.67;;;;;;;;;;5041717;28;25222;-45
2022/05/30 00:25:25;;;;;;;1.90;1.80;;;;;;;;;;5060915;28;24462;-45
2022/05/30 00:27:50;;;;;;;2.30;2.10;;;;;;;;;;5051399;28;24411;-44
2022/05/30 00:30:15;;;;;;;1.80;1.70;;;;;;;;;;5059365;28;24414;-45
2022/05/30 00:32:40;;;;;;;2.13;1.75;;;;;;;;;;5058389;28;24427;-45
2022/05/30 00:35:06;;;;;;;2.40;1.93;;;;;;;;;;5051753;28;25015;-45
2022/05/30 00:37:31;;;;;;;2.00;1.90;;;;;;;;;;5061268;28;24434;-45
2022/05/30 00:39:56;;;;;;;2.00;1.90;;;;;;;;;;5056076;28;24422;-45
2022/05/30 00:42:24;;;;;;;2.55;2.10;;;;;;;;;;5048779;28;24550;-44
2022/05/30 00:44:49;;;;;;;2.28;2.17;;;;;;;;;;5055626;28;24461;-44
2022/05/30 00:47:16;;;;;;;2.20;2.10;;;;;;;;;;5059567;28;24466;-45
2022/05/30 00:49:44;;;;;;;2.20;2.10;;;;;;;;;;5060346;28;21382;-45
2022/05/30 00:52:11;;;;;;;2.00;1.90;;;;;;;;;;5057613;28;24418;-45
2022/05/30 00:54:49;;;;;;;2.45;2.25;;;;;;;;;;5073364;28;24498;-45
2022/05/30 00:57:21;;;;;;;2.55;1.90;;;;;;;;;;5057243;28;24418;-45
2022/05/30 00:59:53;;;;;;;2.00;1.80;;;;;;;;;;5056549;28;24418;-45
2022/05/30 01:02:19;;;;;;;2.00;1.90;;;;;;;;;;5063551;28;24430;-45
2022/05/30 01:07:28;;;;;;;2.20;2.00;;;;;;;;;;5060174;28;24414;-45
2022/05/30 01:09:54;;;;;;;1.97;1.87;;;;;;;;;;5052596;28;24427;-45
2022/05/30 01:12:33;;;;;;;2.00;1.90;;;;;;;;;;5054004;28;24430;-45
2022/05/30 01:14:58;;;;;;;2.10;1.90;;;;;;;;;;5051650;28;24441;-45
2022/05/30 01:17:23;;;;;;;2.00;1.80;;;;;;;;;;5060049;28;24502;-45
2022/05/30 01:19:52;;;;;;;1.90;1.80;;;;;;;;;;5058902;28;24426;-45
2022/05/30 01:22:26;;;;;;;2.50;2.30;;;;;;;;;;5065539;28;24468;-45
2022/05/30 01:24:56;;;;;;;2.22;2.08;;;;;;;;;;5057047;28;24438;-45
2022/05/30 01:27:37;;;;;;;2.15;2.05;;;;;;;;;;5056720;28;24457;-46
2022/05/30 01:30:04;;;;;;;2.03;1.93;;;;;;;;;;5055488;28;24427;-45
2022/05/30 01:32:29;;;;;;;2.47;2.28;;;;;;;;;;5055258;28;24472;-45
2022/05/30 01:34:55;;;;;;;2.50;2.30;;;;;;;;;;5061070;28;24434;-45
2022/05/30 01:37:20;;;;;;;2.40;2.30;;;;;;;;;;5062849;28;24841;-45
2022/05/30 01:39:45;;;;;;;2.10;2.00;;;;;;;;;;5039369;28;24479;-46
2022/05/30 01:42:11;;;;;;;2.00;1.90;;;;;;;;;;5064856;28;24462;-45
2022/05/30 01:44:37;;;;;;;4.00;2.50;;;;;;;;;;5093075;28;24815;-46
2022/05/30 01:47:02;;;;;;;2.53;2.33;;;;;;;;;;5091077;28;24429;-46
2022/05/30 01:49:27;;;;;;;2.50;2.30;;;;;;;;;;5084970;28;24426;-46
2022/05/30 01:51:54;;;;;;;3.20;2.67;;;;;;;;;;5102484;28;24426;-45
2022/05/30 01:54:20;;;;;;;2.80;2.60;;;;;;;;;;5093957;28;24907;-46
2022/05/30 01:56:46;;;;;;;2.80;2.60;;;;;;;;;;5098813;28;24430;-46
2022/05/30 01:59:11;;;;;;;2.80;2.55;;;;;;;;;;5088146;28;24948;-45
2022/05/30 02:01:37;;;;;;;2.93;2.73;;;;;;;;;;5089307;28;24436;-45
2022/05/30 02:04:03;;;;;;;3.53;3.22;;;;;;;;;;5083339;28;24971;-45
2022/05/30 02:06:29;;;;;;;3.40;3.10;;;;;;;;;;5086367;28;24487;-45
2022/05/30 02:08:54;;;;;;;3.30;3.00;;;;;;;;;;5080376;28;24421;-45
2022/05/30 02:11:19;;;;;;;3.20;2.90;;;;;;;;;;5077853;28;24851;-46
2022/05/30 02:13:45;;;;;;;3.33;3.00;;;;;;;;;;5077045;28;24425;-45
2022/05/30 02:18:58;;;;;;;3.40;3.20;;;;;;;;;;5088672;28;24505;-46
2022/05/30 02:21:23;;;;;;;3.30;3.10;;;;;;;;;;5093511;28;24430;-45
2022/05/30 02:23:49;;;;;;;3.70;3.40;;;;;;;;;;5076217;28;24422;-46
2022/05/30 02:26:14;;;;;;;3.63;3.30;;;;;;;;;;5081277;28;24472;-46
2022/05/30 02:28:39;;;;;;;3.30;3.10;;;;;;;;;;5068257;28;24994;-46
2022/05/30 02:31:04;;;;;;;3.40;3.10;;;;;;;;;;5083686;28;24518;-46
2022/05/30 02:38:57;;;;;;;3.00;2.80;;;;;;;;;;5079581;28;25333;-46
2022/05/30 02:41:22;;;;;;;3.30;3.00;;;;;;;;;;5101679;28;24433;-47
2022/05/30 02:43:49;;;;;;;3.30;3.10;;;;;;;;;;5076628;28;24904;-46
2022/05/30 02:46:14;;;;;;;3.45;3.15;;;;;;;;;;5068210;28;24502;-46
2022/05/30 02:48:39;;;;;;;3.60;3.30;;;;;;;;;;5064375;28;24478;-47
2022/05/30 02:51:04;;;;;;;3.43;3.13;;;;;;;;;;5076307;28;24413;-45
2022/05/30 02:53:30;;;;;;;3.30;3.10;;;;;;;;;;5078113;28;24781;-46
2022/05/30 02:55:56;;;;;;;3.53;3.22;;;;;;;;;;5074701;28;24919;-46
2022/05/30 02:58:21;;;;;;;3.30;3.10;;;;;;;;;;5063376;28;25347;-45
2022/05/30 03:00:46;;;;;;;3.30;3.00;;;;;;;;;;5062270;28;24584;-46
2022/05/30 03:03:11;;;;;;;3.70;3.40;;;;;;;;;;5058959;28;24781;-46
2022/05/30 03:05:37;;;;;;;3.70;3.40;;;;;;;;;;5063597;28;24422;-46
2022/05/30 03:08:06;;;;;;;3.30;3.10;;;;;;;;;;5063571;28;24549;-46
2022/05/30 03:10:32;;;;;;;4.20;3.83;;;;;;;;;;5082966;28;24453;-46
2022/05/30 03:12:57;;;;;;;3.27;3.00;;;;;;;;;;5061270;28;24777;-46
2022/05/30 03:15:22;;;;;;;3.83;3.53;;;;;;;;;;5072379;28;24974;-46
2022/05/30 03:17:51;;;;;;;3.60;3.30;;;;;;;;;;5071192;28;24573;-47
2022/05/30 03:20:16;;;;;;;4.00;3.60;;;;;;;;;;5069834;28;24523;-46
2022/05/30 03:22:41;;;;;;;3.57;3.37;;;;;;;;;;5070468;28;24483;-46
2022/05/30 03:25:06;;;;;;;3.90;3.60;;;;;;;;;;5072440;28;24990;-46
2022/05/30 03:27:31;;;;;;;3.80;3.50;;;;;;;;;;5070563;28;24433;-46
2022/05/30 03:29:57;;;;;;;3.70;3.40;;;;;;;;;;5079445;28;24391;-46
2022/05/30 03:32:22;;;;;;;4.00;3.70;;;;;;;;;;5060057;28;24499;-46
2022/05/30 03:34:47;;;;;;;4.20;3.90;;;;;;;;;;5074749;28;24418;-46
2022/05/30 03:37:12;;;;;;;5.50;5.00;;;;;;;;;;5068663;28;24537;-46
2022/05/30 03:39:37;;;;;;;4.90;4.50;;;;;;;;;;5069609;28;24395;-46
2022/05/30 03:42:02;;;;;;;4.45;4.15;;;;;;;;;;5052944;28;24450;-47
2022/05/30 03:44:28;;;;;;;4.53;4.13;;;;;;;;;;5059854;28;24868;-46
2022/05/30 03:46:53;;;;;;;4.50;4.10;;;;;;;;;;5067374;28;24861;-46
2022/05/30 03:49:18;;;;;;;4.25;3.95;;;;;;;;;;5060824;28;24456;-46
2022/05/30 03:51:43;;;;;;;4.28;3.97;;;;;;;;;;5067176;28;24422;-46
2022/05/30 03:54:08;;;;;;;4.53;4.15;;;;;;;;;;5057561;28;25069;-46
2022/05/30 03:56:33;;;;;;;4.43;4.13;;;;;;;;;;5064139;28;24508;-47
2022/05/30 03:58:58;;;;;;;4.20;3.90;;;;;;;;;;5052564;28;24506;-46
2022/05/30 04:01:24;;;;;;;4.30;3.90;;;;;;;;;;5062766;28;25109;-46
2022/05/30 04:03:49;;;;;;;4.50;4.10;;;;;;;;;;5063326;28;24425;-45
2022/05/30 04:06:15;;;;;;;3.87;3.67;;;;;;;;;;5064688;28;24457;-46
2022/05/30 04:08:40;;;;;;;5.07;4.67;;;;;;;;;;5059338;28;24420;-46
2022/05/30 04:11:05;;;;;;;5.47;5.00;;;;;;;;;;5059443;28;24968;-45
2022/05/30 04:13:30;;;;;;;4.47;4.07;;;;;;;;;;5056537;28;24454;-46
2022/05/30 04:15:55;;;;;;;4.40;4.10;;;;;;;;;;5071797;28;24414;-46
2022/05/30 04:18:20;;;;;;;4.40;4.03;;;;;;;;;;5050248;28;24457;-46
2022/05/30 04:20:48;;;;;;;3.70;3.40;;;;;;;;;;5060536;28;24518;-46
2022/05/30 04:23:14;;;;;;;3.78;3.47;;;;;;;;;;5066516;28;24442;-47
2022/05/30 04:25:39;;;;;;;3.37;3.17;;;;;;;;;;5062967;28;24521;-46
2022/05/30 04:28:04;;;;;;;3.50;3.30;;;;;;;;;;5063232;28;24484;-46
2022/05/30 04:30:30;;;;;;;3.70;3.50;;;;;;;;;;5063763;28;24430;-46
2022/05/30 04:32:55;;;;;;;3.10;2.90;;;;;;;;;;5065985;28;24887;-46
2022/05/30 04:35:20;;;;;;;3.10;2.90;;;;;;;;;;5063047;28;24461;-46
2022/05/30 04:37:50;;;;;;;3.30;3.10;;;;;;;;;;5061345;28;24730;-46
2022/05/30 04:40:18;;;;;;;3.83;3.53;;;;;;;;;;5069609;28;24430;-46
2022/05/30 04:42:43;;;;;;;4.38;4.07;;;;;;;;;;5071683;28;24442;-46
2022/05/30 04:45:08;;;;;;;4.50;4.10;;;;;;;;;;5053534;28;25068;-46
2022/05/30 04:47:35;;;;;;;4.70;4.40;;;;;;;;;;5070389;28;24429;-44
2022/05/30 04:50:00;;;;;;;4.90;4.43;;;;;;;;;;5070291;28;24427;-44
2022/05/30 04:52:26;;;;;;;4.47;4.07;;;;;;;;;;5061936;28;24465;-45
2022/05/30 04:54:51;;;;;;;4.30;4.00;;;;;;;;;;5059239;28;25022;-45
2022/05/30 04:57:16;;;;;;;4.50;4.10;;;;;;;;;;5068554;28;24430;-45
2022/05/30 04:59:41;;;;;;;5.00;4.60;;;;;;;;;;5071157;28;24484;-45
2022/05/30 05:02:08;;;;;;;4.87;4.47;;;;;;;;;;5064090;28;24519;-45
2022/05/30 05:04:33;;;;;;;4.60;4.20;;;;;;;;;;5071047;28;24429;-45
2022/05/30 05:06:58;;;;;;;5.20;4.70;;;;;;;;;;5052122;28;24621;-45
2022/05/30 05:09:27;;;;;;;4.95;4.55;;;;;;;;;;5054991;28;24419;-45
2022/05/30 05:11:53;;;;;;;5.13;4.63;;;;;;;;;;5062962;28;24458;-45
2022/05/30 05:14:18;;;;;;;4.72;4.32;;;;;;;;;;5064787;28;24463;-45
2022/05/30 05:16:43;;;;;;;4.73;4.33;;;;;;;;;;5052274;28;24952;-45
2022/05/30 05:19:09;;;;;;;4.80;4.40;;;;;;;;;;5051167;28;24431;-45
2022/05/30 05:21:35;;;;;;;4.63;4.23;;;;;;;;;;5065921;28;24788;-45
2022/05/30 05:24:01;;;;;;;4.40;4.10;;;;;;;;;;5065860;28;24480;-45
2022/05/30 05:26:27;;;;;;;4.63;4.22;;;;;;;;;;5060171;28;24791;-45
2022/05/30 05:28:52;;;;;;;4.27;3.87;;;;;;;;;;5065202;28;24395;-45
2022/05/30 05:31:20;;;;;;;4.20;3.90;;;;;;;;;;5065437;28;24498;-46
2022/05/30 05:33:46;;;;;;;4.40;4.10;;;;;;;;;;5059631;28;24414;-45
2022/05/30 05:36:11;;;;;;;4.10;3.70;;;;;;;;;;5064744;28;24534;-45
2022/05/30 05:38:36;;;;;;;3.50;3.20;;;;;;;;;;5063807;28;24435;-45
2022/05/30 05:41:06;;;;;;;3.60;3.30;;;;;;;;;;5064235;28;25041;-46
2022/05/30 05:43:31;;;;;;;3.13;2.90;;;;;;;;;;5065892;28;24518;-45
2022/05/30 05:45:56;;;;;;;3.10;2.90;;;;;;;;;;5058447;28;24526;-46
2022/05/30 05:48:21;;;;;;;2.90;2.60;;;;;;;;;;5056031;28;24654;-46
2022/05/30 05:50:46;;;;;;;3.60;2.80;;;;;;;;;;5063621;28;24422;-45
2022/05/30 05:53:11;;;;;;;3.00;2.70;;;;;;;;;;5062417;28;24618;-46
2022/05/30 05:55:40;;;;;;;3.75;3.10;;;;;;;;;;5074160;28;24429;-47
2022/05/30 05:58:05;;;;;;;3.53;3.00;;;;;;;;;;5059097;28;24544;-46
2022/05/30 06:00:33;;;;;;;3.30;3.10;;;;;;;;;;5055100;28;24514;-46
2022/05/30 06:02:59;;;;;;;3.27;2.60;;;;;;;;;;5063717;28;24980;-46
2022/05/30 06:05:24;;;;;;;3.37;3.07;;;;;;;;;;5075680;28;24470;-46
2022/05/30 06:07:49;;;;;;;3.50;2.90;;;;;;;;;;5048162;28;24419;-46
2022/05/30 06:10:15;;;;;;;3.30;3.00;;;;;;;;;;5054786;28;24462;-47
2022/05/30 06:12:45;;;;;;;3.10;2.90;;;;;;;;;;5063159;28;25002;-46
2022/05/30 06:15:12;;;;;;;3.55;3.00;;;;;;;;;;5069265;28;24426;-46
2022/05/30 06:17:40;;;;;;;3.40;3.10;;;;;;;;;;5057540;28;24414;-46
2022/05/30 06:20:06;;;;;;;3.30;3.00;;;;;;;;;;5067990;28;24441;-46
2022/05/30 06:22:31;;;;;;;3.40;3.10;;;;;;;;;;5064016;28;24453;-46
2022/05/30 06:24:56;;;;;;;4.40;4.00;;;;;;;;;;5060144;28;24498;-47
2022/05/30 06:27:21;;;;;;;3.30;3.10;;;;;;;;;;5056251;28;25181;-45
2022/05/30 06:29:47;;;;;;;5.22;4.72;;;;;;;;;;5060040;28;24489;-47
2022/05/30 06:32:13;;;;;;;5.00;4.50;;;;;;;;;;5054320;28;24449;-44
2022/05/30 06:34:38;;;;;;;5.30;4.80;;;;;;;;;;5059273;28;24438;-44
2022/05/30 06:37:03;;;;;;;6.80;6.10;;;;;;;;;;5071198;28;24433;-46
2022/05/30 06:39:28;;;;;;;6.93;6.23;;;;;;;;;;5066088;28;24423;-46
2022/05/30 06:41:54;;;;;;;9.25;8.20;;;;;;;;;;5062518;28;24475;-45
2022/05/30 06:44:19;;;;;;;10.37;8.13;;;;;;;;;;5063123;28;24434;-45
2022/05/30 06:46:44;;;;;;;8.00;7.20;;;;;;;;;;5064376;28;24418;-46
2022/05/30 06:49:09;;;;;;;9.80;8.13;;;;;;;;;;5064281;28;24552;-46
2022/05/30 06:51:35;;;;;;;9.07;8.07;;;;;;;;;;5063766;28;24476;-46
2022/05/30 06:54:01;;;;;;;9.50;8.57;;;;;;;;;;5061780;28;24471;-46
2022/05/30 06:56:30;;;;;;;9.13;7.80;;;;;;;;;;5063543;28;24434;-46
2022/05/30 06:58:56;;;;;;;9.13;8.23;;;;;;;;;;5065422;28;24427;-45
2022/05/30 07:01:23;;;;;;;7.78;7.00;;;;;;;;;;5064168;28;24429;-46
2022/05/30 07:03:49;;;;;;;7.00;6.40;;;;;;;;;;5066690;28;24538;-46
2022/05/30 07:06:16;;;;;;;7.68;6.97;;;;;;;;;;5069044;28;24521;-45
2022/05/30 07:08:46;;;;;;;7.78;7.05;;;;;;;;;;5065920;28;24430;-46
2022/05/30 07:11:11;;;;;;;7.88;7.18;;;;;;;;;;5069765;28;24449;-46
2022/05/30 07:13:36;;;;;;;7.03;6.37;;;;;;;;;;5064794;28;24509;-46
2022/05/30 07:16:02;;;;;;;7.93;7.00;;;;;;;;;;5065567;28;24505;-46
2022/05/30 07:18:28;;;;;;;7.50;6.70;;;;;;;;;;5065297;28;24525;-45
2022/05/30 07:20:57;;;;;;;6.80;6.20;;;;;;;;;;5068536;28;24486;-46
2022/05/30 07:23:22;;;;;;;7.78;7.00;;;;;;;;;;5065862;28;24429;-45
2022/05/30 07:25:47;;;;;;;7.50;6.70;;;;;;;;;;5066859;28;24443;-45
2022/05/30 07:28:12;;;;;;;7.20;6.50;;;;;;;;;;5066609;28;24468;-45
2022/05/30 07:30:38;;;;;;;6.60;6.00;;;;;;;;;;5061297;28;24435;-46
2022/05/30 07:33:03;;;;;;;7.40;6.70;;;;;;;;;;5063110;28;24765;-47
2022/05/30 07:35:28;;;;;;;7.00;6.40;;;;;;;;;;5066245;28;24393;-47
2022/05/30 07:37:53;;;;;;;6.60;6.00;;;;;;;;;;5066740;28;24652;-47
2022/05/30 07:40:18;;;;;;;6.57;5.88;;;;;;;;;;5066684;28;24434;-46
2022/05/30 07:42:43;;;;;;;6.50;5.90;;;;;;;;;;5064438;28;24505;-44
2022/05/30 07:45:10;;;;;;;6.40;5.90;;;;;;;;;;5069220;28;24777;-46
2022/05/30 07:47:35;;;;;;;6.63;6.13;;;;;;;;;;5067700;28;24452;-46
2022/05/30 07:50:02;;;;;;;6.13;5.53;;;;;;;;;;5067096;28;24463;-46
2022/05/30 07:52:29;;;;;;;6.60;6.00;;;;;;;;;;5065601;28;24781;-45
2022/05/30 07:54:55;;;;;;;5.80;5.30;;;;;;;;;;5068180;28;24492;-45
2022/05/30 07:57:50;;;;;;;5.50;5.10;;;;;;;;;;5067061;28;24960;-45
2022/05/30 08:00:05;;;;;;;6.38;5.85;;;;;;;;;;5066360;28;24415;-45
2022/05/30 08:02:30;;;;;;;5.70;5.20;;;;;;;;;;5066006;28;25018;-46
2022/05/30 08:04:56;;;;;;;6.40;5.50;;;;;;;;;;5067700;28;24912;-46
2022/05/30 08:07:21;;;;;;;6.60;6.00;;;;;;;;;;5068147;28;24418;-45
2022/05/30 08:09:46;;;;;;;6.22;5.63;;;;;;;;;;5066697;28;24421;-45
2022/05/30 08:12:12;;;;;;;5.77;5.27;;;;;;;;;;5064020;28;25275;-45
2022/05/30 08:14:37;;;;;;;7.40;6.70;;;;;;;;;;5065446;28;24426;-46
2022/05/30 08:17:02;;;;;;;6.20;5.70;;;;;;;;;;5061682;28;24969;-46
2022/05/30 08:19:28;;;;;;;5.77;5.17;;;;;;;;;;5066095;28;24497;-47
2022/05/30 08:22:00;;;;;;;5.47;4.95;;;;;;;;;;5067469;28;24553;-45
2022/05/30 08:24:25;;;;;;;5.60;5.10;;;;;;;;;;5065667;28;24427;-46
2022/05/30 08:26:50;;;;;;;5.00;4.60;;;;;;;;;;5067758;28;24430;-46
2022/05/30 08:29:15;;;;;;;5.80;5.35;;;;;;;;;;5064142;28;24514;-45
2022/05/30 08:31:40;;;;;;;5.60;5.10;;;;;;;;;;5079844;28;25039;-46
2022/05/30 08:34:06;;;;;;;5.90;5.40;;;;;;;;;;5065857;28;25149;-46
2022/05/30 08:36:31;;;;;;;5.33;4.93;;;;;;;;;;5066434;28;25219;-45
2022/05/30 08:41:46;;;;;;;5.00;4.50;;;;;;;;;;5067987;28;24463;-46
2022/05/30 08:41:48;;;;;;;5.10;4.70;;;;;;;;;;5054704;28;24489;-45
2022/05/30 08:44:13;;;;;;;5.00;4.60;;;;;;;;;;5065172;28;24498;-45
2022/05/30 08:46:57;;;;;;;4.50;4.20;;;;;;;;;;5066922;28;24494;-47
2022/05/30 08:49:34;;;;;;;4.47;4.07;;;;;;;;;;5066068;28;24391;-46
2022/05/30 08:52:15;;;;;;;4.30;4.00;;;;;;;;;;5065748;28;24752;-46
2022/05/30 08:55:04;;;;;;;4.40;4.00;;;;;;;;;;5066086;28;24433;-46
2022/05/30 08:57:41;;;;;;;3.50;3.30;;;;;;;;;;5064703;28;24501;-46
2022/05/30 09:00:10;;;;;;;3.70;3.40;;;;;;;;;;5048509;28;24458;-45
2022/05/30 09:03:05;;;;;;;3.20;3.00;;;;;;;;;;5066923;28;24460;-46
2022/05/30 09:05:50;;;;;;;3.30;3.10;;;;;;;;;;5033755;28;24521;-43
2022/05/30 09:08:31;;;;;;;3.75;3.47;;;;;;;;;;5061258;28;24984;-45
2022/05/30 09:10:59;;;;;;;3.90;3.60;;;;;;;;;;5066295;28;24971;-45
2022/05/30 09:13:24;;;;;;;4.47;4.07;;;;;;;;;;5065426;28;24450;-45
2022/05/30 09:15:58;;;;;;;3.50;3.30;;;;;;;;;;5058106;28;24473;-45
2022/05/30 09:18:27;;;;;;;3.72;3.42;;;;;;;;;;5065931;28;24995;-45
2022/05/30 09:20:54;;;;;;;3.92;3.30;;;;;;;;;;5065415;28;24410;-45
2022/05/30 09:23:22;;;;;;;3.80;3.50;;;;;;;;;;5066240;28;24427;-45
2022/05/30 09:25:56;;;;;;;3.83;3.53;;;;;;;;;;5061976;28;24565;-45
2022/05/30 09:28:22;;;;;;;4.60;4.30;;;;;;;;;;5060937;28;24425;-46
2022/05/30 09:30:59;;;;;;;4.70;4.30;;;;;;;;;;5063540;28;24399;-46
2022/05/30 09:33:28;;;;;;;4.22;3.92;;;;;;;;;;5069862;28;24505;-47
2022/05/30 09:36:12;;;;;;;3.90;3.60;;;;;;;;;;5081238;28;24426;-46
2022/05/30 09:38:41;;;;;;;4.50;4.10;;;;;;;;;;5084642;28;25012;-46
2022/05/30 09:41:11;;;;;;;4.20;3.80;;;;;;;;;;5081397;28;24452;-46
2022/05/30 09:43:42;;;;;;;4.03;3.73;;;;;;;;;;5069124;28;24457;-46
2022/05/30 09:46:25;;;;;;;3.63;3.33;;;;;;;;;;5067134;28;25030;-46
2022/05/30 09:49:05;;;;;;;4.00;3.70;;;;;;;;;;5063279;28;24427;-46
2022/05/30 09:51:41;;;;;;;3.70;3.50;;;;;;;;;;5066287;28;24941;-46
2022/05/30 09:54:08;;;;;;;2.90;2.70;;;;;;;;;;5057752;28;24431;-46
2022/05/30 09:56:36;;;;;;;3.72;3.40;;;;;;;;;;5065133;28;24971;-45
2022/05/30 09:59:04;;;;;;;3.80;3.50;;;;;;;;;;5062669;28;24538;-45
2022/05/30 10:01:31;;;;;;;3.10;2.90;;;;;;;;;;5065865;28;24546;-46
2022/05/30 10:04:12;;;;;;;3.10;2.70;;;;;;;;;;5061650;28;24769;-46
2022/05/30 10:06:37;;;;;;;2.90;2.70;;;;;;;;;;5064165;28;24500;-46
2022/05/30 10:09:11;;;;;;;3.00;2.80;;;;;;;;;;5064728;28;24453;-46
2022/05/30 10:11:36;;;;;;;3.35;3.05;;;;;;;;;;5064536;28;24393;-45
2022/05/30 10:14:16;;;;;;;3.20;2.90;;;;;;;;;;5061242;28;24426;-46
2022/05/30 10:16:41;;;;;;;3.15;2.95;;;;;;;;;;5063493;28;24927;-46
2022/05/30 10:19:10;;;;;;;3.10;2.80;;;;;;;;;;5065867;28;24411;-46
2022/05/30 10:28:14;;;;;;;3.00;2.80;;;;;;;;;;5066376;28;24470;-46
2022/05/30 10:30:11;;;;;;;3.00;2.72;;;;;;;;;;5056316;28;24406;-46
2022/05/30 10:32:56;;;;;;;2.60;2.40;;;;;;;;;;5064305;28;24472;-46
2022/05/30 10:35:22;;;;;;;2.58;2.38;;;;;;;;;;5062643;28;25015;-46
2022/05/30 10:38:05;;;;;;;2.80;2.60;;;;;;;;;;5066359;28;24543;-46
2022/05/30 10:40:37;;;;;;;3.05;2.85;;;;;;;;;;5069128;28;24394;-45
2022/05/30 10:43:05;;;;;;;3.67;3.42;;;;;;;;;;5068570;28;24442;-49
2022/05/30 10:45:30;;;;;;;3.97;3.65;;;;;;;;;;5067615;28;24477;-45
2022/05/30 10:47:55;;;;;;;4.00;3.70;;;;;;;;;;5069001;28;24451;-46
2022/05/30 10:50:46;;;;;;;3.60;3.33;;;;;;;;;;5068271;28;24426;-45
2022/05/30 10:53:18;;;;;;;2.90;2.70;;;;;;;;;;5068662;28;24513;-46
2022/05/30 10:55:46;;;;;;;2.35;2.20;;;;;;;;;;5067383;28;24402;-46
2022/05/30 10:58:20;;;;;;;2.47;2.30;;;;;;;;;;5068157;28;24494;-46
2022/05/30 11:00:50;;;;;;;3.20;2.33;;;;;;;;;;5067299;28;24426;-46
2022/05/30 11:03:21;;;;;;;2.83;2.63;;;;;;;;;;5067056;28;24470;-46
2022/05/30 11:05:55;;;;;;;2.90;2.70;;;;;;;;;;5062823;28;24495;-46
2022/05/30 11:08:27;;;;;;;3.20;2.90;;;;;;;;;;5069864;28;24464;-46
2022/05/30 11:10:57;;;;;;;3.47;3.22;;;;;;;;;;5067201;28;24430;-46
2022/05/30 11:13:34;;;;;;;3.63;3.20;;;;;;;;;;5068638;28;24411;-46
2022/05/30 11:16:02;;;;;;;3.65;3.20;;;;;;;;;;5066759;28;24426;-46
2022/05/30 11:18:41;;;;;;;2.90;2.70;;;;;;;;;;5066317;28;24572;-46
2022/05/30 11:21:06;;;;;;;3.08;2.88;;;;;;;;;;5049478;28;24423;-46
2022/05/30 11:23:31;;;;;;;2.70;2.50;;;;;;;;;;5069371;28;24982;-46
2022/05/30 11:26:06;;;;;;;2.30;2.20;;;;;;;;;;5061886;28;24447;-46
2022/05/30 11:29:03;;;;;;;2.78;2.58;;;;;;;;;;5049525;28;24396;-45
2022/05/30 11:31:44;;;;;;;2.50;2.30;;;;;;;;;;5039375;28;24433;-46
2022/05/30 11:34:10;;;;;;;2.70;2.50;;;;;;;;;;5052736;28;24457;-46
2022/05/30 11:36:38;;;;;;;2.80;2.60;;;;;;;;;;5068797;28;24524;-45
2022/05/30 11:39:24;;;;;;;3.00;2.80;;;;;;;;;;5068923;28;24824;-45
2022/05/30 11:42:02;;;;;;;3.10;2.80;;;;;;;;;;5066631;28;24421;-45
2022/05/30 11:44:48;;;;;;;2.55;2.38;;;;;;;;;;5066291;28;24435;-46
2022/05/30 11:47:22;;;;;;;2.83;2.63;;;;;;;;;;5067994;28;24522;-45
2022/05/30 11:50:08;;;;;;;3.00;2.80;;;;;;;;;;5066809;28;24418;-45
2022/05/30 11:52:39;;;;;;;3.08;2.88;;;;;;;;;;5064624;28;25014;-45
2022/05/30 11:55:04;;;;;;;3.30;3.00;;;;;;;;;;5068052;28;24410;-44
2022/05/30 11:57:33;;;;;;;2.70;2.50;;;;;;;;;;5066048;28;24435;-44
2022/05/30 12:00:17;;;;;;;2.70;2.50;;;;;;;;;;5063583;28;24628;-44
2022/05/30 12:02:54;;;;;;;2.78;2.58;;;;;;;;;;5066396;28;24450;-46
2022/05/30 12:05:37;;;;;;;2.50;2.40;;;;;;;;;;5063894;28;25015;-46
2022/05/30 12:08:24;;;;;;;3.83;2.72;;;;;;;;;;5066959;28;24437;-46
2022/05/30 12:11:10;;;;;;;2.70;2.50;;;;;;;;;;5067367;28;24477;-46
2022/05/30 12:13:50;;;;;;;2.70;2.50;;;;;;;;;;5060377;28;24421;-46
2022/05/30 12:16:29;;;;;;;2.55;2.45;;;;;;;;;;5066828;28;25207;-45
2022/05/30 12:24:39;;;;;;;3.20;2.90;;;;;;;;;;5064885;28;24461;-44
2022/05/30 12:27:33;;;;;;;3.20;2.90;;;;;;;;;;5060244;28;24789;-46
2022/05/30 12:30:00;;;;;;;3.80;3.50;;;;;;;;;;5035327;28;25128;-46
2022/05/30 12:32:34;;;;;;;3.33;3.13;;;;;;;;;;5064862;28;24544;-50
2022/05/30 12:37:45;;;;;;;3.10;2.90;;;;;;;;;;5066993;28;24448;-46
2022/05/30 12:40:11;;;;;;;3.00;2.72;;;;;;;;;;5048202;28;24401;-46
2022/05/30 12:42:42;;;;;;;3.33;3.13;;;;;;;;;;5063551;28;25061;-45
2022/05/30 12:45:16;;;;;;;3.10;2.90;;;;;;;;;;5066061;28;24435;-46
2022/05/30 12:47:47;;;;;;;4.13;3.13;;;;;;;;;;5064835;28;24417;-44
2022/05/30 12:50:15;;;;;;;3.80;2.80;;;;;;;;;;5049678;28;24412;-44
2022/05/30 12:52:52;;;;;;;3.00;2.80;;;;;;;;;;5066017;28;24557;-44
2022/05/30 12:55:30;;;;;;;2.50;2.17;;;;;;;;;;5064822;28;25008;-44
2022/05/30 12:57:55;;;;;;;2.90;2.70;;;;;;;;;;5065268;28;24426;-45
2022/05/30 13:00:20;;;;;;;2.83;2.63;;;;;;;;;;5064649;28;24503;-46
2022/05/30 13:02:57;;;;;;;2.33;2.13;;;;;;;;;;5064215;28;25091;-46
2022/05/30 13:05:30;;;;;;;2.40;2.30;;;;;;;;;;5067136;28;24780;-46
2022/05/30 13:07:56;;;;;;;2.30;2.10;;;;;;;;;;5064545;28;24454;-46
2022/05/30 13:10:21;;;;;;;1.93;1.83;;;;;;;;;;5066416;28;24469;-45
2022/05/30 13:13:09;;;;;;;2.70;2.50;;;;;;;;;;5063382;28;24427;-46
2022/05/30 13:15:36;;;;;;;1.90;1.80;;;;;;;;;;5061555;28;24445;-45
2022/05/30 13:18:04;;;;;;;2.45;2.25;;;;;;;;;;5049848;28;24521;-45
2022/05/30 13:20:38;;;;;;;2.00;1.90;;;;;;;;;;5067423;28;24448;-45
2022/05/30 13:23:05;;;;;;;2.20;2.00;;;;;;;;;;5065476;28;24421;-45
2022/05/30 13:25:33;;;;;;;1.65;1.50;;;;;;;;;;5061927;28;24431;-45
2022/05/30 13:28:10;;;;;;;2.55;2.35;;;;;;;;;;5067294;28;24434;-46
2022/05/30 13:30:37;;;;;;;2.00;1.90;;;;;;;;;;5067185;28;25018;-45
2022/05/30 13:33:09;;;;;;;2.10;1.90;;;;;;;;;;5061850;28;24433;-46
2022/05/30 13:35:34;;;;;;;2.10;1.90;;;;;;;;;;5065131;28;24450;-45
2022/05/30 13:38:04;;;;;;;2.30;2.10;;;;;;;;;;5058402;28;24462;-47
2022/05/30 13:40:31;;;;;;;2.30;2.20;;;;;;;;;;5050418;28;24429;-46
2022/05/30 13:42:58;;;;;;;2.17;2.08;;;;;;;;;;5053029;28;24458;-45
2022/05/30 13:45:26;;;;;;;2.30;2.10;;;;;;;;;;5058322;28;24984;-45
2022/05/30 13:47:56;;;;;;;2.10;1.90;;;;;;;;;;5064667;28;24496;-46
2022/05/30 13:50:21;;;;;;;2.00;1.80;;;;;;;;;;5062048;28;24410;-45
2022/05/30 13:52:48;;;;;;;2.80;2.60;;;;;;;;;;5059495;28;24789;-45
2022/05/30 13:55:21;;;;;;;2.10;2.00;;;;;;;;;;5059776;28;24419;-45
2022/05/30 13:57:47;;;;;;;2.00;1.90;;;;;;;;;;5067143;28;24407;-46
2022/05/30 14:00:18;;;;;;;1.80;1.70;;;;;;;;;;5066859;28;24448;-44
2022/05/30 14:02:45;;;;;;;1.77;1.67;;;;;;;;;;5060135;28;24488;-46
2022/05/30 14:05:12;;;;;;;1.88;1.67;;;;;;;;;;5066345;28;24514;-45
2022/05/30 14:07:41;;;;;;;1.70;1.60;;;;;;;;;;5058970;28;24410;-45
2022/05/30 14:10:08;;;;;;;2.38;2.17;;;;;;;;;;5066862;28;24399;-45
2022/05/30 14:12:35;;;;;;;2.70;1.92;;;;;;;;;;5065865;28;24385;-45
2022/05/30 14:15:06;;;;;;;1.88;1.60;;;;;;;;;;5057639;28;24434;-45
2022/05/30 14:17:31;;;;;;;1.85;1.67;;;;;;;;;;5079780;28;24395;-46
2022/05/30 14:20:08;;;;;;;1.90;1.70;;;;;;;;;;5064316;28;24429;-45
2022/05/30 14:22:35;;;;;;;2.88;2.00;;;;;;;;;;5061357;28;24430;-45
2022/05/30 14:25:03;;;;;;;1.40;1.30;;;;;;;;;;5066032;28;24459;-45
2022/05/30 14:27:29;;;;;;;1.48;1.38;;;;;;;;;;5064428;28;24782;-45
2022/05/30 14:29:59;;;;;;;1.55;1.45;;;;;;;;;;5066831;28;24573;-46
2022/05/30 14:32:29;;;;;;;1.40;1.30;;;;;;;;;;5066208;28;24409;-45
2022/05/30 14:35:04;;;;;;;1.52;1.42;;;;;;;;;;5066876;28;24468;-46
2022/05/30 14:37:36;;;;;;;2.08;1.75;;;;;;;;;;5064601;28;25036;-45
2022/05/30 14:40:04;;;;;;;1.60;1.50;;;;;;;;;;5064464;28;24460;-45
2022/05/30 14:42:35;;;;;;;1.70;1.60;;;;;;;;;;5081365;28;24414;-46
2022/05/30 14:45:11;;;;;;;1.60;1.50;;;;;;;;;;5106437;28;24408;-46
2022/05/30 14:47:38;;;;;;;1.50;1.40;;;;;;;;;;5101329;28;24826;-46
2022/05/30 14:50:05;;;;;;;1.70;1.60;;;;;;;;;;5093676;28;24686;-45
2022/05/30 14:52:34;;;;;;;1.70;1.50;;;;;;;;;;5103708;28;24417;-45
2022/05/30 14:55:03;;;;;;;1.70;1.60;;;;;;;;;;5106427;28;24953;-46
2022/05/30 14:57:29;;;;;;;2.00;1.80;;;;;;;;;;5106506;28;24526;-46
2022/05/30 14:59:55;;;;;;;1.85;1.75;;;;;;;;;;5099211;28;25023;-45
2022/05/30 15:05:05;;;;;;;1.63;1.52;;;;;;;;;;5104554;28;24455;-45
2022/05/30 15:07:31;;;;;;;1.80;1.50;;;;;;;;;;5101424;28;24410;-46
2022/05/30 15:09:57;;;;;;;1.23;1.20;;;;;;;;;;5084204;28;24456;-44
2022/05/30 15:12:22;;;;;;;1.90;1.80;;;;;;;;;;5102048;28;24437;-44
2022/05/30 15:14:47;;;;;;;1.50;1.40;;;;;;;;;;5106410;28;24501;-45
2022/05/30 15:17:12;;;;;;;1.90;1.80;;;;;;;;;;5106357;28;24521;-44
2022/05/30 15:19:37;;;;;;;1.60;1.50;;;;;;;;;;5106137;28;24492;-44